Time;durP1;ratioP1;P1;durP2;ratioP2;P2;SDS_P1;SDS_P2;PMS_P1;PMS_P2;Temp;Humidity;BMP_temperature;BMP_pressure;BME280_temperature;BME280_humidity;BME280_pressure;Samples;Min_cycle;Max_cycle;Signal;HPM_P1;HPM_P2
2023/12/15 00:00:15;;;;;;;16.97;14.00;;;;;;;;;;467308;28;1342;-76
2023/12/15 00:00:30;;;;;;;17.25;14.32;;;;;;;;;;480867;28;1042;-76
2023/12/15 00:00:46;;;;;;;17.47;13.60;;;;;;;;;;476984;28;936;-76
2023/12/15 00:01:01;;;;;;;16.77;13.23;;;;;;;;;;465967;28;1396;-76
2023/12/15 00:01:17;;;;;;;16.73;13.93;;;;;;;;;;472932;28;1420;-77
2023/12/15 00:01:32;;;;;;;17.83;14.30;;;;;;;;;;489135;28;1383;-76
2023/12/15 00:01:48;;;;;;;17.90;14.13;;;;;;;;;;481549;28;1135;-76
2023/12/15 00:02:03;;;;;;;17.23;14.20;;;;;;;;;;470494;28;1387;-76
2023/12/15 00:02:18;;;;;;;17.33;14.03;;;;;;;;;;478994;28;1001;-77
2023/12/15 00:02:34;;;;;;;16.73;13.55;;;;;;;;;;486931;28;1338;-76
2023/12/15 00:02:50;;;;;;;16.40;13.33;;;;;;;;;;478568;28;1390;-76
2023/12/15 00:03:05;;;;;;;16.25;12.75;;;;;;;;;;471055;28;1337;-76
2023/12/15 00:03:20;;;;;;;15.40;12.27;;;;;;;;;;472891;28;1370;-76
2023/12/15 00:03:36;;;;;;;15.50;12.35;;;;;;;;;;473554;28;1205;-76
2023/12/15 00:03:51;;;;;;;15.50;12.77;;;;;;;;;;477487;28;1312;-77
2023/12/15 00:04:07;;;;;;;15.30;12.50;;;;;;;;;;485171;28;1436;-76
2023/12/15 00:04:22;;;;;;;14.57;11.85;;;;;;;;;;472790;28;1461;-76
2023/12/15 00:04:37;;;;;;;14.27;11.73;;;;;;;;;;473929;28;1495;-76
2023/12/15 00:04:53;;;;;;;14.30;11.70;;;;;;;;;;473234;28;1399;-76
2023/12/15 00:05:09;;;;;;;13.77;11.30;;;;;;;;;;471883;28;1399;-76
2023/12/15 00:05:24;;;;;;;14.02;11.38;;;;;;;;;;479290;28;1074;-76
2023/12/15 00:05:40;;;;;;;14.52;11.88;;;;;;;;;;474528;27;1367;-76
2023/12/15 00:05:57;;;;;;;15.40;11.80;;;;;;;;;;475476;27;1295;-76
2023/12/15 00:06:13;;;;;;;15.10;11.35;;;;;;;;;;476103;27;1289;-76
2023/12/15 00:06:28;;;;;;;13.65;10.98;;;;;;;;;;480322;27;1335;-76
2023/12/15 00:06:43;;;;;;;14.50;11.43;;;;;;;;;;472777;28;1406;-76
2023/12/15 00:06:59;;;;;;;15.23;11.85;;;;;;;;;;472725;28;1489;-76
2023/12/15 00:07:14;;;;;;;15.23;12.40;;;;;;;;;;473399;28;898;-76
2023/12/15 00:07:29;;;;;;;14.73;12.70;;;;;;;;;;474958;28;1458;-76
2023/12/15 00:07:45;;;;;;;13.85;11.70;;;;;;;;;;470704;28;1292;-76
2023/12/15 00:08:00;;;;;;;13.07;11.10;;;;;;;;;;471588;28;1387;-76
2023/12/15 00:08:15;;;;;;;12.60;10.63;;;;;;;;;;471616;28;1041;-76
2023/12/15 00:08:31;;;;;;;12.40;10.52;;;;;;;;;;471206;28;1296;-77
2023/12/15 00:08:46;;;;;;;13.17;10.93;;;;;;;;;;471656;28;1092;-76
2023/12/15 00:09:01;;;;;;;13.70;11.03;;;;;;;;;;471305;28;1430;-76
2023/12/15 00:09:17;;;;;;;14.18;11.48;;;;;;;;;;472511;28;2052;-77
2023/12/15 00:09:32;;;;;;;14.25;10.85;;;;;;;;;;470769;28;1285;-76
2023/12/15 00:09:48;;;;;;;13.27;10.47;;;;;;;;;;468878;28;1670;-76
2023/12/15 00:10:03;;;;;;;12.57;10.80;;;;;;;;;;469758;28;1494;-77
2023/12/15 00:10:19;;;;;;;13.27;10.95;;;;;;;;;;475660;28;1410;-76
2023/12/15 00:10:35;;;;;;;13.70;10.80;;;;;;;;;;471623;28;1374;-76
2023/12/15 00:10:50;;;;;;;12.98;10.82;;;;;;;;;;467516;28;1383;-76
2023/12/15 00:11:05;;;;;;;13.95;11.43;;;;;;;;;;470997;28;1293;-76
2023/12/15 00:11:21;;;;;;;15.90;12.40;;;;;;;;;;479513;28;1507;-77
2023/12/15 00:11:36;;;;;;;15.57;12.50;;;;;;;;;;485869;28;1485;-77
2023/12/15 00:11:52;;;;;;;13.90;11.65;;;;;;;;;;477047;28;1144;-77
2023/12/15 00:12:07;;;;;;;14.30;11.63;;;;;;;;;;469516;28;1263;-77
2023/12/15 00:12:22;;;;;;;15.15;12.30;;;;;;;;;;472940;28;1363;-77
2023/12/15 00:12:38;;;;;;;15.67;12.67;;;;;;;;;;471816;28;1294;-76
2023/12/15 00:12:53;;;;;;;15.70;12.70;;;;;;;;;;470154;28;1341;-76
2023/12/15 00:13:09;;;;;;;15.07;12.70;;;;;;;;;;470414;28;916;-76
2023/12/15 00:13:24;;;;;;;14.20;12.10;;;;;;;;;;471620;28;1241;-77
2023/12/15 00:13:39;;;;;;;13.73;11.82;;;;;;;;;;471683;28;1291;-77
2023/12/15 00:13:54;;;;;;;13.77;11.70;;;;;;;;;;471382;28;1414;-77
2023/12/15 00:14:10;;;;;;;14.43;11.83;;;;;;;;;;473659;28;1341;-77
2023/12/15 00:14:25;;;;;;;15.35;12.30;;;;;;;;;;473622;28;1418;-76
2023/12/15 00:14:41;;;;;;;15.37;11.90;;;;;;;;;;472905;28;1328;-76
2023/12/15 00:14:56;;;;;;;14.73;11.57;;;;;;;;;;472086;28;1375;-76
2023/12/15 00:15:11;;;;;;;15.18;11.85;;;;;;;;;;471189;28;1250;-77
2023/12/15 00:15:27;;;;;;;15.50;12.10;;;;;;;;;;471207;28;874;-76
2023/12/15 00:15:42;;;;;;;15.10;12.10;;;;;;;;;;473157;28;1401;-76
2023/12/15 00:15:57;;;;;;;14.88;12.38;;;;;;;;;;470959;28;1395;-76
2023/12/15 00:16:13;;;;;;;15.43;12.40;;;;;;;;;;473949;28;1291;-76
2023/12/15 00:16:28;;;;;;;15.90;12.32;;;;;;;;;;470894;28;1190;-77
2023/12/15 00:16:43;;;;;;;15.77;12.37;;;;;;;;;;470427;28;1427;-77
2023/12/15 00:16:59;;;;;;;15.40;12.03;;;;;;;;;;470518;28;1227;-77
2023/12/15 00:17:14;;;;;;;14.82;11.85;;;;;;;;;;472319;28;1151;-77
2023/12/15 00:17:35;;;;;;;14.87;12.20;;;;;;;;;;470473;28;918;-77
2023/12/15 00:17:51;;;;;;;15.77;12.45;;;;;;;;;;470613;28;1050;-76
2023/12/15 00:18:06;;;;;;;15.13;12.00;;;;;;;;;;471565;28;1419;-77
2023/12/15 00:18:22;;;;;;;14.77;12.10;;;;;;;;;;472766;28;889;-76
2023/12/15 00:18:37;;;;;;;15.73;12.60;;;;;;;;;;472518;27;2569;-76
2023/12/15 00:18:53;;;;;;;16.23;12.70;;;;;;;;;;476036;27;1351;-76
2023/12/15 00:19:08;;;;;;;15.95;12.52;;;;;;;;;;474083;28;1202;-76
2023/12/15 00:19:23;;;;;;;16.93;12.57;;;;;;;;;;474648;28;1346;-76
2023/12/15 00:19:39;;;;;;;16.80;12.47;;;;;;;;;;474101;28;1507;-77
2023/12/15 00:19:54;;;;;;;15.52;12.25;;;;;;;;;;475179;27;1332;-76
2023/12/15 00:20:10;;;;;;;14.70;12.07;;;;;;;;;;474778;28;1304;-76
2023/12/15 00:20:25;;;;;;;14.07;11.70;;;;;;;;;;476508;28;1343;-77
2023/12/15 00:20:41;;;;;;;13.90;11.80;;;;;;;;;;470913;28;1347;-76
2023/12/15 00:20:56;;;;;;;13.63;11.40;;;;;;;;;;469257;28;1375;-77
2023/12/15 00:21:11;;;;;;;12.40;10.50;;;;;;;;;;469797;28;1385;-77
2023/12/15 00:21:27;;;;;;;12.47;10.73;;;;;;;;;;471807;28;1465;-77
2023/12/15 00:21:42;;;;;;;12.80;11.00;;;;;;;;;;469970;28;949;-77
2023/12/15 00:21:57;;;;;;;12.67;10.67;;;;;;;;;;469783;28;1347;-77
2023/12/15 00:22:13;;;;;;;12.60;10.53;;;;;;;;;;473201;28;1112;-77
2023/12/15 00:22:28;;;;;;;14.10;11.13;;;;;;;;;;473077;28;1588;-76
2023/12/15 00:22:43;;;;;;;14.93;11.50;;;;;;;;;;471528;28;1736;-77
2023/12/15 00:22:59;;;;;;;13.20;11.00;;;;;;;;;;471890;28;1358;-76
2023/12/15 00:23:14;;;;;;;12.85;10.95;;;;;;;;;;473330;28;1387;-77
2023/12/15 00:23:29;;;;;;;12.60;10.53;;;;;;;;;;471705;28;1762;-77
2023/12/15 00:23:45;;;;;;;11.63;9.90;;;;;;;;;;469362;28;1572;-76
2023/12/15 00:24:02;;;;;;;11.77;9.97;;;;;;;;;;469122;28;1643;-76
2023/12/15 00:24:17;;;;;;;12.30;10.10;;;;;;;;;;471299;28;1500;-76
2023/12/15 00:24:33;;;;;;;13.63;11.10;;;;;;;;;;468476;28;1188;-77
2023/12/15 00:24:48;;;;;;;14.87;11.97;;;;;;;;;;468972;28;1347;-77
2023/12/15 00:25:04;;;;;;;14.73;11.87;;;;;;;;;;468883;28;1664;-76
2023/12/15 00:25:19;;;;;;;14.68;12.18;;;;;;;;;;469474;28;1055;-76
2023/12/15 00:25:35;;;;;;;14.30;11.82;;;;;;;;;;469203;28;1372;-76
2023/12/15 00:25:50;;;;;;;13.90;11.20;;;;;;;;;;469764;28;913;-75
2023/12/15 00:26:05;;;;;;;14.97;11.40;;;;;;;;;;471838;28;1294;-76
2023/12/15 00:26:21;;;;;;;15.27;11.55;;;;;;;;;;476370;28;1022;-77
2023/12/15 00:26:36;;;;;;;15.23;11.97;;;;;;;;;;485652;28;1718;-78
2023/12/15 00:26:51;;;;;;;16.40;12.37;;;;;;;;;;478864;28;1305;-76
2023/12/15 00:27:07;;;;;;;18.00;12.63;;;;;;;;;;472298;28;1231;-76
2023/12/15 00:27:22;;;;;;;16.67;12.40;;;;;;;;;;473609;28;1141;-76
2023/12/15 00:27:37;;;;;;;14.93;12.10;;;;;;;;;;470769;28;1285;-76
2023/12/15 00:27:53;;;;;;;15.13;12.00;;;;;;;;;;469899;28;1399;-77
2023/12/15 00:28:08;;;;;;;15.80;12.37;;;;;;;;;;470234;28;925;-77
2023/12/15 00:28:23;;;;;;;16.40;12.70;;;;;;;;;;471123;28;1289;-76
2023/12/15 00:28:38;;;;;;;16.42;12.50;;;;;;;;;;471928;28;1403;-77
2023/12/15 00:28:54;;;;;;;16.27;12.60;;;;;;;;;;469360;28;1438;-76
2023/12/15 00:29:09;;;;;;;15.70;12.50;;;;;;;;;;469038;28;2005;-77
2023/12/15 00:29:25;;;;;;;15.30;12.13;;;;;;;;;;468259;28;1329;-77
2023/12/15 00:29:40;;;;;;;15.00;11.77;;;;;;;;;;467927;28;1416;-77
2023/12/15 00:29:55;;;;;;;15.55;11.93;;;;;;;;;;469442;28;1081;-76
2023/12/15 00:30:12;;;;;;;15.23;11.77;;;;;;;;;;469301;28;1445;-77
2023/12/15 00:30:27;;;;;;;13.65;11.30;;;;;;;;;;472624;28;1052;-76
2023/12/15 00:30:43;;;;;;;14.00;11.48;;;;;;;;;;468242;28;1126;-76
2023/12/15 00:30:58;;;;;;;15.60;11.83;;;;;;;;;;471042;28;1326;-76
2023/12/15 00:31:14;;;;;;;16.13;12.02;;;;;;;;;;474622;28;1320;-77
2023/12/15 00:31:29;;;;;;;15.80;12.40;;;;;;;;;;474254;28;1149;-76
2023/12/15 00:31:45;;;;;;;15.57;12.50;;;;;;;;;;472755;28;1364;-77
2023/12/15 00:32:00;;;;;;;15.63;12.30;;;;;;;;;;474566;28;1669;-77
2023/12/15 00:32:15;;;;;;;15.57;12.32;;;;;;;;;;475360;28;1363;-77
2023/12/15 00:32:31;;;;;;;15.43;12.20;;;;;;;;;;491535;28;1000;-77
2023/12/15 00:32:46;;;;;;;15.40;12.25;;;;;;;;;;489892;28;1429;-76
2023/12/15 00:33:02;;;;;;;15.50;12.23;;;;;;;;;;474179;28;1243;-76
2023/12/15 00:33:17;;;;;;;15.57;12.40;;;;;;;;;;478639;28;1385;-77
2023/12/15 00:33:32;;;;;;;15.23;12.23;;;;;;;;;;473989;28;1331;-77
2023/12/15 00:33:48;;;;;;;14.80;12.00;;;;;;;;;;473764;28;1760;-76
2023/12/15 00:34:03;;;;;;;14.73;11.87;;;;;;;;;;476357;28;1079;-76
2023/12/15 00:34:18;;;;;;;13.85;11.38;;;;;;;;;;479667;27;918;-77
2023/12/15 00:34:34;;;;;;;13.50;11.27;;;;;;;;;;475857;27;1045;-76
2023/12/15 00:34:49;;;;;;;15.13;11.80;;;;;;;;;;475835;27;1279;-77
2023/12/15 00:35:05;;;;;;;15.27;12.02;;;;;;;;;;474743;28;1370;-77
2023/12/15 00:35:20;;;;;;;14.30;11.80;;;;;;;;;;476385;28;1022;-76
2023/12/15 00:35:35;;;;;;;13.23;11.13;;;;;;;;;;472251;28;1330;-76
2023/12/15 00:35:51;;;;;;;12.77;10.70;;;;;;;;;;472241;28;1417;-76
2023/12/15 00:36:06;;;;;;;13.35;10.88;;;;;;;;;;472817;28;944;-76
2023/12/15 00:36:22;;;;;;;14.60;10.93;;;;;;;;;;472590;28;1186;-76
2023/12/15 00:36:37;;;;;;;15.60;11.30;;;;;;;;;;470469;28;1504;-77
2023/12/15 00:36:52;;;;;;;13.97;11.27;;;;;;;;;;469623;28;1445;-76
2023/12/15 00:37:08;;;;;;;14.83;11.70;;;;;;;;;;472635;28;1565;-76
2023/12/15 00:37:23;;;;;;;15.70;12.05;;;;;;;;;;477214;28;929;-76
2023/12/15 00:37:39;;;;;;;15.63;12.17;;;;;;;;;;473143;28;1296;-76
2023/12/15 00:37:54;;;;;;;16.67;12.70;;;;;;;;;;470257;28;1387;-76
2023/12/15 00:38:09;;;;;;;16.00;12.40;;;;;;;;;;471348;28;1108;-76
2023/12/15 00:38:24;;;;;;;15.07;11.90;;;;;;;;;;476681;28;897;-77
2023/12/15 00:38:40;;;;;;;14.43;11.83;;;;;;;;;;472030;28;1424;-77
2023/12/15 00:38:55;;;;;;;14.43;11.93;;;;;;;;;;473372;28;1110;-77
2023/12/15 00:39:10;;;;;;;15.30;12.07;;;;;;;;;;470693;28;1386;-76
2023/12/15 00:39:26;;;;;;;15.70;12.10;;;;;;;;;;474181;28;1292;-76
2023/12/15 00:39:41;;;;;;;15.80;12.23;;;;;;;;;;468974;28;1457;-77
2023/12/15 00:39:57;;;;;;;15.73;12.53;;;;;;;;;;471678;28;1296;-77
2023/12/15 00:40:12;;;;;;;15.23;12.43;;;;;;;;;;471485;28;1463;-77
2023/12/15 00:40:27;;;;;;;14.37;11.80;;;;;;;;;;476156;28;1355;-77
2023/12/15 00:40:43;;;;;;;14.43;11.67;;;;;;;;;;469451;28;1395;-76
2023/12/15 00:40:58;;;;;;;15.02;12.18;;;;;;;;;;469727;28;1334;-76
2023/12/15 00:41:13;;;;;;;15.93;12.30;;;;;;;;;;473456;28;1291;-77
2023/12/15 00:41:29;;;;;;;16.67;12.48;;;;;;;;;;478915;28;1037;-76
2023/12/15 00:41:44;;;;;;;16.70;12.47;;;;;;;;;;474062;28;1275;-76
2023/12/15 00:41:59;;;;;;;16.93;12.13;;;;;;;;;;472784;28;1376;-76
2023/12/15 00:42:15;;;;;;;16.38;12.13;;;;;;;;;;476817;28;1659;-77
2023/12/15 00:42:30;;;;;;;15.30;12.30;;;;;;;;;;473013;28;1361;-76
2023/12/15 00:42:46;;;;;;;15.18;12.38;;;;;;;;;;473440;27;1296;-77
2023/12/15 00:43:01;;;;;;;15.13;12.03;;;;;;;;;;476449;27;1434;-76
2023/12/15 00:43:16;;;;;;;15.13;11.67;;;;;;;;;;481614;27;1088;-76
2023/12/15 00:43:32;;;;;;;14.95;11.60;;;;;;;;;;473019;28;1332;-76
2023/12/15 00:43:47;;;;;;;14.40;11.37;;;;;;;;;;471327;28;1143;-76
2023/12/15 00:44:03;;;;;;;13.70;10.67;;;;;;;;;;469634;28;1312;-77
2023/12/15 00:44:18;;;;;;;13.50;10.73;;;;;;;;;;475354;28;1297;-77
2023/12/15 00:44:34;;;;;;;14.73;11.68;;;;;;;;;;469315;28;1118;-76
2023/12/15 00:44:49;;;;;;;16.27;12.20;;;;;;;;;;469780;28;1416;-76
2023/12/15 00:45:05;;;;;;;16.23;12.13;;;;;;;;;;469852;28;1377;-77
2023/12/15 00:45:20;;;;;;;15.07;11.82;;;;;;;;;;474109;28;1382;-76
2023/12/15 00:45:35;;;;;;;15.00;11.73;;;;;;;;;;469995;28;1250;-77
2023/12/15 00:45:51;;;;;;;15.00;11.83;;;;;;;;;;469654;28;1590;-76
2023/12/15 00:46:06;;;;;;;14.07;11.53;;;;;;;;;;470232;28;1330;-76
2023/12/15 00:46:22;;;;;;;13.18;11.00;;;;;;;;;;476218;28;908;-77
2023/12/15 00:46:37;;;;;;;13.37;10.83;;;;;;;;;;469676;28;1415;-77
2023/12/15 00:46:52;;;;;;;13.47;10.87;;;;;;;;;;470010;28;1376;-76
2023/12/15 00:47:07;;;;;;;13.10;11.07;;;;;;;;;;469902;28;1463;-76
2023/12/15 00:47:23;;;;;;;13.07;10.87;;;;;;;;;;474040;28;1184;-76
2023/12/15 00:47:38;;;;;;;13.30;10.83;;;;;;;;;;470101;28;1395;-77
2023/12/15 00:47:54;;;;;;;13.32;10.95;;;;;;;;;;470076;28;1151;-77
2023/12/15 00:48:09;;;;;;;14.00;10.83;;;;;;;;;;472955;28;1343;-76
2023/12/15 00:48:24;;;;;;;13.60;10.70;;;;;;;;;;476851;27;901;-77
2023/12/15 00:48:39;;;;;;;12.45;10.52;;;;;;;;;;472570;28;1040;-76
2023/12/15 00:48:55;;;;;;;13.23;10.73;;;;;;;;;;478804;28;1125;-77
2023/12/15 00:49:10;;;;;;;13.70;10.97;;;;;;;;;;478872;28;2028;-77
2023/12/15 00:49:26;;;;;;;13.55;10.90;;;;;;;;;;473561;28;1057;-76
2023/12/15 00:49:41;;;;;;;13.45;10.57;;;;;;;;;;470364;28;948;-76
2023/12/15 00:49:59;;;;;;;13.53;10.53;;;;;;;;;;470337;28;1150;-77
2023/12/15 00:50:14;;;;;;;13.93;10.85;;;;;;;;;;472309;28;1019;-77
2023/12/15 00:50:29;;;;;;;15.10;10.70;;;;;;;;;;473644;28;1054;-76
2023/12/15 00:50:45;;;;;;;14.80;10.77;;;;;;;;;;470546;28;1144;-77
2023/12/15 00:51:00;;;;;;;13.57;11.03;;;;;;;;;;470417;28;1086;-76
2023/12/15 00:51:15;;;;;;;14.43;11.38;;;;;;;;;;474133;28;1302;-77
2023/12/15 00:51:31;;;;;;;15.23;11.47;;;;;;;;;;470367;28;1544;-76
2023/12/15 00:51:46;;;;;;;14.23;11.13;;;;;;;;;;469626;28;1109;-76
2023/12/15 00:52:02;;;;;;;13.23;10.90;;;;;;;;;;485534;28;1266;-77
2023/12/15 00:52:17;;;;;;;13.47;10.80;;;;;;;;;;476994;28;1053;-77
2023/12/15 00:52:32;;;;;;;13.43;10.85;;;;;;;;;;470651;28;1113;-77
2023/12/15 00:52:48;;;;;;;15.30;11.40;;;;;;;;;;468580;28;1129;-77
2023/12/15 00:53:03;;;;;;;14.93;11.17;;;;;;;;;;470743;28;1276;-77
2023/12/15 00:53:20;;;;;;;12.23;10.25;;;;;;;;;;474793;28;1103;-77
2023/12/15 00:53:35;;;;;;;13.27;10.77;;;;;;;;;;469819;28;1041;-76
2023/12/15 00:53:50;;;;;;;13.90;11.10;;;;;;;;;;470471;28;1250;-76
2023/12/15 00:54:06;;;;;;;13.63;10.90;;;;;;;;;;471815;28;1041;-76
2023/12/15 00:54:21;;;;;;;14.23;11.20;;;;;;;;;;471819;28;1094;-77
2023/12/15 00:54:37;;;;;;;14.50;11.38;;;;;;;;;;467721;28;1077;-76
2023/12/15 00:54:52;;;;;;;14.67;11.20;;;;;;;;;;467076;28;1132;-77
2023/12/15 00:55:08;;;;;;;14.82;11.20;;;;;;;;;;469895;28;1158;-77
2023/12/15 00:55:23;;;;;;;14.20;11.13;;;;;;;;;;473904;28;1269;-76
2023/12/15 00:55:38;;;;;;;14.32;11.30;;;;;;;;;;469690;28;1214;-76
2023/12/15 00:55:53;;;;;;;14.47;11.27;;;;;;;;;;469788;28;1149;-77
2023/12/15 00:56:09;;;;;;;13.33;10.50;;;;;;;;;;471594;28;850;-76
2023/12/15 00:56:25;;;;;;;12.50;10.23;;;;;;;;;;478740;28;1142;-77
2023/12/15 00:56:40;;;;;;;12.40;10.27;;;;;;;;;;487153;28;1815;-77
2023/12/15 00:56:56;;;;;;;12.93;10.57;;;;;;;;;;477421;28;1026;-76
2023/12/15 00:57:11;;;;;;;15.05;11.43;;;;;;;;;;467932;28;1160;-77
2023/12/15 00:57:26;;;;;;;15.50;11.60;;;;;;;;;;473889;28;902;-77
2023/12/15 00:57:42;;;;;;;13.90;11.07;;;;;;;;;;469156;28;1126;-77
2023/12/15 00:57:57;;;;;;;13.50;10.63;;;;;;;;;;471359;28;935;-77
2023/12/15 00:58:13;;;;;;;13.70;10.57;;;;;;;;;;472564;28;876;-77
2023/12/15 00:58:29;;;;;;;13.23;10.55;;;;;;;;;;477488;28;1037;-76
2023/12/15 00:58:44;;;;;;;12.35;10.20;;;;;;;;;;471258;28;1218;-76
2023/12/15 00:59:02;;;;;;;12.60;10.50;;;;;;;;;;472071;28;1086;-76
2023/12/15 00:59:17;;;;;;;13.80;11.00;;;;;;;;;;481195;28;873;-76
2023/12/15 00:59:33;;;;;;;15.27;11.43;;;;;;;;;;474451;27;955;-76
2023/12/15 00:59:48;;;;;;;14.63;11.32;;;;;;;;;;475681;27;1040;-77
2023/12/15 01:00:05;;;;;;;12.98;10.88;;;;;;;;;;473652;28;1234;-77
2023/12/15 01:00:20;;;;;;;12.88;10.65;;;;;;;;;;479732;28;1327;-77
2023/12/15 01:00:35;;;;;;;12.63;10.40;;;;;;;;;;471342;28;1139;-77
2023/12/15 01:00:51;;;;;;;12.88;10.40;;;;;;;;;;476019;28;1198;-77
2023/12/15 01:01:06;;;;;;;13.37;10.63;;;;;;;;;;471438;28;1253;-77
2023/12/15 01:01:22;;;;;;;13.67;10.87;;;;;;;;;;478338;28;1125;-77
2023/12/15 01:01:37;;;;;;;12.55;10.05;;;;;;;;;;468624;28;1066;-77
2023/12/15 01:01:52;;;;;;;11.00;9.23;;;;;;;;;;468177;28;1184;-76
2023/12/15 01:02:08;;;;;;;10.60;8.93;;;;;;;;;;468109;28;1118;-76
2023/12/15 01:02:23;;;;;;;10.53;8.83;;;;;;;;;;478597;28;1056;-76
2023/12/15 01:02:38;;;;;;;10.40;8.90;;;;;;;;;;469904;28;1015;-77
2023/12/15 01:02:54;;;;;;;10.80;9.00;;;;;;;;;;469650;28;977;-76
2023/12/15 01:03:09;;;;;;;11.57;9.37;;;;;;;;;;471134;28;1171;-77
2023/12/15 01:03:25;;;;;;;13.02;10.18;;;;;;;;;;481423;28;1231;-77
2023/12/15 01:03:40;;;;;;;13.97;11.00;;;;;;;;;;468339;28;1242;-76
2023/12/15 01:03:55;;;;;;;13.93;11.10;;;;;;;;;;468556;28;1149;-77
2023/12/15 01:04:11;;;;;;;14.40;11.13;;;;;;;;;;469344;28;922;-77
2023/12/15 01:04:26;;;;;;;14.43;11.30;;;;;;;;;;480549;28;893;-76
2023/12/15 01:04:41;;;;;;;15.03;11.10;;;;;;;;;;469372;28;888;-76
2023/12/15 01:04:57;;;;;;;15.43;11.07;;;;;;;;;;469364;28;1536;-76
2023/12/15 01:05:12;;;;;;;14.33;11.17;;;;;;;;;;470564;28;1071;-76
2023/12/15 01:05:27;;;;;;;14.60;11.10;;;;;;;;;;479509;28;1224;-77
2023/12/15 01:05:43;;;;;;;14.98;11.18;;;;;;;;;;472412;28;906;-77
2023/12/15 01:05:58;;;;;;;14.27;11.23;;;;;;;;;;472555;28;1152;-77
2023/12/15 01:06:14;;;;;;;14.02;11.25;;;;;;;;;;473777;28;1016;-77
2023/12/15 01:06:30;;;;;;;14.33;11.13;;;;;;;;;;479490;28;1176;-77
2023/12/15 01:06:46;;;;;;;14.32;11.18;;;;;;;;;;470774;28;1300;-76
2023/12/15 01:07:01;;;;;;;14.47;11.53;;;;;;;;;;473553;28;1041;-77
2023/12/15 01:07:16;;;;;;;14.20;11.70;;;;;;;;;;476966;28;1272;-77
2023/12/15 01:07:32;;;;;;;14.13;11.50;;;;;;;;;;476758;28;918;-76
2023/12/15 01:07:48;;;;;;;14.57;11.43;;;;;;;;;;470622;28;1015;-76
2023/12/15 01:08:03;;;;;;;14.57;11.57;;;;;;;;;;470792;28;910;-76
2023/12/15 01:08:18;;;;;;;14.07;11.40;;;;;;;;;;480164;28;1131;-77
2023/12/15 01:08:34;;;;;;;14.50;11.17;;;;;;;;;;475481;27;1139;-77
2023/12/15 01:08:49;;;;;;;14.43;11.20;;;;;;;;;;475095;27;1115;-76
2023/12/15 01:09:05;;;;;;;13.93;11.23;;;;;;;;;;476044;27;1213;-76
2023/12/15 01:09:21;;;;;;;14.85;11.30;;;;;;;;;;484355;27;2000;-77
2023/12/15 01:09:37;;;;;;;15.27;11.60;;;;;;;;;;474666;27;909;-76
2023/12/15 01:09:53;;;;;;;14.63;11.55;;;;;;;;;;477440;28;1356;-76
2023/12/15 01:10:08;;;;;;;13.77;11.07;;;;;;;;;;473553;28;1209;-76
2023/12/15 01:10:24;;;;;;;13.03;10.67;;;;;;;;;;484367;28;1154;-77
2023/12/15 01:10:39;;;;;;;12.63;10.40;;;;;;;;;;472445;28;1178;-76
2023/12/15 01:10:54;;;;;;;13.43;10.63;;;;;;;;;;473898;28;933;-76
2023/12/15 01:11:10;;;;;;;14.70;10.93;;;;;;;;;;473790;28;1167;-76
2023/12/15 01:11:25;;;;;;;15.03;11.23;;;;;;;;;;475722;28;1080;-77
2023/12/15 01:11:40;;;;;;;15.30;11.52;;;;;;;;;;470241;28;1134;-76
2023/12/15 01:11:55;;;;;;;14.80;11.73;;;;;;;;;;472218;28;1322;-76
2023/12/15 01:12:11;;;;;;;14.37;11.63;;;;;;;;;;471221;28;1227;-77
2023/12/15 01:12:26;;;;;;;14.70;11.40;;;;;;;;;;482312;28;1100;-77
2023/12/15 01:12:41;;;;;;;14.63;11.33;;;;;;;;;;470462;28;949;-76
2023/12/15 01:12:57;;;;;;;13.87;11.20;;;;;;;;;;470113;28;1160;-77
2023/12/15 01:13:12;;;;;;;13.37;10.90;;;;;;;;;;470708;28;949;-76
2023/12/15 01:13:27;;;;;;;14.13;11.02;;;;;;;;;;483127;28;1016;-76
2023/12/15 01:13:43;;;;;;;14.53;11.30;;;;;;;;;;472061;28;1109;-76
2023/12/15 01:13:58;;;;;;;13.40;11.07;;;;;;;;;;474013;28;968;-76
2023/12/15 01:14:14;;;;;;;13.90;10.90;;;;;;;;;;475949;28;1258;-76
2023/12/15 01:14:29;;;;;;;14.33;10.93;;;;;;;;;;485315;27;1556;-76
2023/12/15 01:14:44;;;;;;;13.13;11.00;;;;;;;;;;475696;27;873;-76
2023/12/15 01:15:00;;;;;;;13.87;11.43;;;;;;;;;;475351;27;1119;-76
2023/12/15 01:15:15;;;;;;;15.23;11.73;;;;;;;;;;478390;27;1076;-77
2023/12/15 01:15:31;;;;;;;15.17;11.50;;;;;;;;;;484651;27;940;-76
2023/12/15 01:15:46;;;;;;;15.02;11.48;;;;;;;;;;473201;28;1486;-77
2023/12/15 01:16:04;;;;;;;15.27;11.70;;;;;;;;;;471614;28;1297;-76
2023/12/15 01:16:20;;;;;;;15.00;11.80;;;;;;;;;;483350;28;999;-77
2023/12/15 01:16:43;;;;;;;14.75;11.43;;;;;;;;;;476322;28;1142;-76
2023/12/15 01:16:59;;;;;;;14.75;11.50;;;;;;;;;;473524;28;1521;-77
2023/12/15 01:17:14;;;;;;;14.45;11.43;;;;;;;;;;474666;28;1397;-77
2023/12/15 01:17:30;;;;;;;14.33;11.50;;;;;;;;;;479080;28;1357;-77
2023/12/15 01:17:45;;;;;;;16.15;11.98;;;;;;;;;;469793;28;967;-77
2023/12/15 01:18:00;;;;;;;17.27;12.07;;;;;;;;;;472040;28;972;-77
2023/12/15 01:18:15;;;;;;;16.30;12.07;;;;;;;;;;473793;28;1440;-77
2023/12/15 01:18:31;;;;;;;16.02;11.85;;;;;;;;;;475549;28;1427;-76
2023/12/15 01:18:46;;;;;;;14.70;11.33;;;;;;;;;;468199;28;921;-76
2023/12/15 01:19:02;;;;;;;15.05;11.48;;;;;;;;;;468025;28;1399;-77
2023/12/15 01:19:17;;;;;;;16.33;11.93;;;;;;;;;;474645;28;1176;-77
2023/12/15 01:19:33;;;;;;;16.33;11.90;;;;;;;;;;478142;28;1442;-77
2023/12/15 01:19:48;;;;;;;14.27;11.37;;;;;;;;;;473511;28;1208;-76
2023/12/15 01:20:04;;;;;;;13.87;11.50;;;;;;;;;;474523;28;1332;-77
2023/12/15 01:20:20;;;;;;;14.98;11.82;;;;;;;;;;483196;28;1389;-77
2023/12/15 01:20:35;;;;;;;15.13;11.52;;;;;;;;;;475666;28;1381;-76
2023/12/15 01:20:50;;;;;;;14.50;11.20;;;;;;;;;;471506;28;1402;-77
2023/12/15 01:21:06;;;;;;;14.90;11.43;;;;;;;;;;471948;28;1548;-76
2023/12/15 01:21:21;;;;;;;14.35;11.30;;;;;;;;;;482770;28;1543;-77
2023/12/15 01:21:36;;;;;;;13.37;11.00;;;;;;;;;;473606;28;1372;-77
2023/12/15 01:21:53;;;;;;;14.40;11.32;;;;;;;;;;470954;28;1016;-76
2023/12/15 01:22:09;;;;;;;16.65;11.70;;;;;;;;;;470749;28;1464;-76
2023/12/15 01:22:24;;;;;;;17.60;11.50;;;;;;;;;;482906;28;1631;-76
2023/12/15 01:22:39;;;;;;;15.43;11.20;;;;;;;;;;469765;28;1496;-77
2023/12/15 01:22:55;;;;;;;14.43;11.02;;;;;;;;;;468061;28;1204;-76
2023/12/15 01:23:10;;;;;;;14.30;10.90;;;;;;;;;;468631;28;1279;-76
2023/12/15 01:23:25;;;;;;;14.40;11.37;;;;;;;;;;480555;28;1133;-76
2023/12/15 01:23:41;;;;;;;15.23;12.07;;;;;;;;;;469114;28;1546;-77
2023/12/15 01:23:56;;;;;;;15.13;11.60;;;;;;;;;;469497;28;1431;-77
2023/12/15 01:24:12;;;;;;;15.00;11.37;;;;;;;;;;470853;28;1046;-76
2023/12/15 01:24:27;;;;;;;14.60;11.35;;;;;;;;;;483034;28;1516;-77
2023/12/15 01:24:43;;;;;;;16.00;11.47;;;;;;;;;;467393;28;1446;-76
2023/12/15 01:24:58;;;;;;;16.00;11.50;;;;;;;;;;470390;28;1480;-77
2023/12/15 01:25:13;;;;;;;15.13;11.60;;;;;;;;;;474398;28;1353;-77
2023/12/15 01:25:29;;;;;;;16.50;11.70;;;;;;;;;;480260;28;1450;-76
2023/12/15 01:25:44;;;;;;;16.17;11.60;;;;;;;;;;471966;28;1368;-77
2023/12/15 01:25:59;;;;;;;14.77;11.18;;;;;;;;;;472470;28;1197;-77
2023/12/15 01:26:15;;;;;;;14.80;11.17;;;;;;;;;;477647;28;1409;-77
2023/12/15 01:26:30;;;;;;;15.63;11.87;;;;;;;;;;483964;28;1135;-77
2023/12/15 01:26:45;;;;;;;15.13;11.68;;;;;;;;;;473782;27;1331;-77
2023/12/15 01:27:01;;;;;;;15.43;11.70;;;;;;;;;;475627;27;859;-76
2023/12/15 01:27:16;;;;;;;15.43;11.80;;;;;;;;;;480283;27;1293;-77
2023/12/15 01:27:32;;;;;;;14.07;11.35;;;;;;;;;;484130;27;1659;-76
2023/12/15 01:27:47;;;;;;;13.47;10.97;;;;;;;;;;473016;28;1339;-77
2023/12/15 01:28:02;;;;;;;13.77;11.43;;;;;;;;;;475393;27;1305;-76
2023/12/15 01:28:18;;;;;;;14.00;11.32;;;;;;;;;;481473;27;1474;-77
2023/12/15 01:28:33;;;;;;;13.87;11.00;;;;;;;;;;483121;27;1324;-77
2023/12/15 01:28:48;;;;;;;13.43;10.82;;;;;;;;;;476126;27;1324;-76
2023/12/15 01:29:04;;;;;;;12.80;10.07;;;;;;;;;;472459;28;1390;-76
2023/12/15 01:29:19;;;;;;;14.02;10.60;;;;;;;;;;482079;28;2063;-76
2023/12/15 01:29:35;;;;;;;15.10;11.20;;;;;;;;;;478340;27;1336;-76
2023/12/15 01:29:50;;;;;;;13.43;10.50;;;;;;;;;;475341;27;1490;-77
2023/12/15 01:30:06;;;;;;;12.07;9.65;;;;;;;;;;473014;28;1654;-76
2023/12/15 01:30:21;;;;;;;11.68;9.38;;;;;;;;;;485217;28;889;-77
2023/12/15 01:30:37;;;;;;;12.30;10.20;;;;;;;;;;476291;28;1474;-77
2023/12/15 01:30:52;;;;;;;12.47;10.47;;;;;;;;;;473555;28;1343;-76
2023/12/15 01:31:07;;;;;;;13.15;10.52;;;;;;;;;;474359;28;925;-77
2023/12/15 01:31:23;;;;;;;14.93;11.40;;;;;;;;;;486463;28;1075;-77
2023/12/15 01:31:38;;;;;;;15.15;11.65;;;;;;;;;;473421;28;1277;-77
2023/12/15 01:31:54;;;;;;;14.80;11.77;;;;;;;;;;472598;28;952;-76
2023/12/15 01:32:09;;;;;;;15.00;11.82;;;;;;;;;;473573;27;1870;-76
2023/12/15 01:32:24;;;;;;;15.63;11.93;;;;;;;;;;485442;28;1339;-77
2023/12/15 01:32:40;;;;;;;16.37;11.90;;;;;;;;;;472264;28;1308;-77
2023/12/15 01:32:55;;;;;;;15.57;11.60;;;;;;;;;;471987;28;1406;-77
2023/12/15 01:33:10;;;;;;;16.30;11.67;;;;;;;;;;471270;28;1177;-78